Time;durP1;ratioP1;P1;durP2;ratioP2;P2;SDS_P1;SDS_P2;PMS_P1;PMS_P2;Temp;Humidity;BMP_temperature;BMP_pressure;BME280_temperature;BME280_humidity;BME280_pressure;Samples;Min_cycle;Max_cycle;Signal;HPM_P1;HPM_P2
2023/07/10 00:01:30;;;;;;;20.23;17.33;;;22.30;99.90;;;;;;5012247;28;20274;-84
2023/07/10 00:03:55;;;;;;;20.90;18.00;;;22.30;99.90;;;;;;5008913;28;20464;-84
2023/07/10 00:06:21;;;;;;;27.53;18.60;;;22.30;99.90;;;;;;4998855;28;20202;-84
2023/07/10 00:08:47;;;;;;;23.70;18.83;;;22.30;99.90;;;;;;5017210;28;20688;-84
2023/07/10 00:11:22;;;;;;;21.77;18.10;;;22.30;99.90;;;;;;5013440;28;20214;-85
2023/07/10 00:13:48;;;;;;;20.97;18.50;;;22.30;99.90;;;;;;5016645;28;20194;-84
2023/07/10 00:16:17;;;;;;;21.70;19.67;;;22.30;99.90;;;;;;5014659;28;21057;-84
2023/07/10 00:18:42;;;;;;;21.40;19.20;;;22.20;99.90;;;;;;5009595;28;20218;-84
2023/07/10 00:21:08;;;;;;;25.70;20.63;;;22.20;99.90;;;;;;5003534;28;20615;-84
2023/07/10 00:23:34;;;;;;;23.53;18.70;;;22.10;99.90;;;;;;5012518;28;20193;-84
2023/07/10 00:25:59;;;;;;;21.93;19.13;;;22.10;99.90;;;;;;5015757;28;20195;-84
2023/07/10 00:28:25;;;;;;;21.97;19.77;;;22.10;99.90;;;;;;5010452;28;20192;-84
2023/07/10 00:30:51;;;;;;;25.33;20.57;;;22.00;99.90;;;;;;5008604;28;20254;-84
2023/07/10 00:33:19;;;;;;;23.97;21.53;;;21.90;99.90;;;;;;5007370;28;20218;-84
2023/07/10 00:35:46;;;;;;;24.00;21.70;;;21.90;99.90;;;;;;5004613;28;20453;-84
2023/07/10 00:38:22;;;;;;;23.93;20.37;;;21.80;99.90;;;;;;5014231;28;20536;-85
2023/07/10 00:40:47;;;;;;;23.07;20.80;;;21.80;99.90;;;;;;5017793;28;20434;-85
2023/07/10 00:43:22;;;;;;;24.23;21.80;;;21.70;1.00;;;;;;5013031;28;20459;-85
2023/07/10 00:45:51;;;;;;;25.13;22.43;;;21.70;99.90;;;;;;5005996;28;20188;-85
2023/07/10 00:48:41;;;;;;;26.30;23.63;;;21.60;99.90;;;;;;5005710;28;20455;-85
2023/07/10 00:51:16;;;;;;;25.57;23.00;;;21.60;99.90;;;;;;5010921;28;20471;-84
2023/07/10 00:53:43;;;;;;;28.53;23.77;;;21.60;99.90;;;;;;5015958;28;20572;-84
2023/07/10 00:56:14;;;;;;;24.47;21.80;;;21.60;99.90;;;;;;5010633;28;20482;-84
2023/07/10 00:58:43;;;;;;;25.20;22.53;;;21.60;99.90;;;;;;5001017;28;20479;-84
2023/07/10 01:01:19;;;;;;;28.60;22.83;;;21.70;99.90;;;;;;5004557;28;20467;-85
2023/07/10 01:03:48;;;;;;;26.73;23.93;;;21.70;99.90;;;;;;5008965;28;20457;-84
2023/07/10 01:06:30;;;;;;;25.30;22.50;;;21.70;99.90;;;;;;5010408;28;20925;-85
2023/07/10 01:09:02;;;;;;;28.80;24.47;;;21.60;99.90;;;;;;5010117;28;20509;-84
2023/07/10 01:11:29;;;;;;;27.03;24.23;;;21.60;99.90;;;;;;4999033;28;20545;-84
2023/07/10 01:13:56;;;;;;;28.43;23.07;;;21.60;99.90;;;;;;5008188;28;20445;-85
2023/07/10 01:16:23;;;;;;;27.23;22.90;;;21.70;99.90;;;;;;5003406;28;20443;-85
2023/07/10 01:18:49;;;;;;;29.30;22.67;;;21.70;99.90;;;;;;5013405;28;20842;-84
2023/07/10 01:21:32;;;;;;;28.13;22.63;;;21.60;99.90;;;;;;5008669;28;20464;-84
2023/07/10 01:24:01;;;;;;;24.60;22.00;;;21.70;99.90;;;;;;5014425;28;20442;-84
2023/07/10 01:26:28;;;;;;;26.00;23.20;;;21.70;99.90;;;;;;5001848;28;20440;-84
2023/07/10 01:28:55;;;;;;;27.70;22.80;;;21.70;99.90;;;;;;5014942;28;20503;-84
2023/07/10 01:31:23;;;;;;;26.97;24.07;;;21.70;99.90;;;;;;5006240;28;20545;-84
2023/07/10 01:33:54;;;;;;;28.63;24.00;;;21.70;99.90;;;;;;5005188;28;20824;-85
2023/07/10 01:36:23;;;;;;;31.67;24.30;;;21.60;99.90;;;;;;5006544;28;20499;-85
2023/07/10 01:39:09;;;;;;;28.20;23.03;;;21.50;99.90;;;;;;5013535;28;20476;-85
2023/07/10 01:41:40;;;;;;;26.93;22.90;;;21.50;99.90;;;;;;5005166;28;20522;-85
2023/07/10 01:44:29;;;;;;;26.70;23.93;;;21.50;99.90;;;;;;5011615;28;20444;-84
2023/07/10 01:46:55;;;;;;;28.10;23.30;;;21.50;99.90;;;;;;5003740;28;20783;-85
2023/07/10 01:49:34;;;;;;;28.93;22.90;;;21.50;99.90;;;;;;5019535;28;20431;-85
2023/07/10 01:52:02;;;;;;;30.93;25.33;;;21.50;99.90;;;;;;5008967;28;20532;-85
2023/07/10 01:54:28;;;;;;;33.43;26.00;;;21.50;99.90;;;;;;5002670;28;20515;-84
2023/07/10 01:56:53;;;;;;;34.30;25.67;;;21.50;99.90;;;;;;5006002;28;20448;-85
2023/07/10 01:59:19;;;;;;;33.80;25.97;;;21.50;99.90;;;;;;5009193;28;20191;-85
2023/07/10 02:01:45;;;;;;;43.33;28.40;;;21.50;99.90;;;;;;5024725;28;20287;-85
2023/07/10 02:04:10;;;;;;;30.37;24.10;;;21.50;99.90;;;;;;5008516;28;20192;-85
2023/07/10 02:06:38;;;;;;;33.90;26.53;;;21.40;99.90;;;;;;5001602;28;20445;-85
2023/07/10 02:09:04;;;;;;;34.73;24.60;;;21.40;99.90;;;;;;5004076;28;20227;-85
2023/07/10 02:11:29;;;;;;;31.13;25.97;;;21.40;99.90;;;;;;5006122;28;20970;-85
2023/07/10 02:13:55;;;;;;;26.57;23.53;;;21.30;99.90;;;;;;5010309;28;20455;-84
2023/07/10 02:16:21;;;;;;;32.70;25.60;;;21.30;99.90;;;;;;5014155;28;20258;-85
2023/07/10 02:18:49;;;;;;;32.87;25.17;;;21.30;99.90;;;;;;5013496;28;20692;-85
2023/07/10 02:21:14;;;;;;;31.43;24.63;;;21.20;99.90;;;;;;4997663;28;20707;-83
2023/07/10 02:23:40;;;;;;;37.13;23.63;;;21.20;99.90;;;;;;5000540;28;20443;-84
2023/07/10 02:26:06;;;;;;;31.70;24.17;;;21.20;99.90;;;;;;4999056;28;20223;-85
2023/07/10 02:28:32;;;;;;;20.60;17.90;;;21.20;99.90;;;;;;5011693;28;20192;-85
2023/07/10 02:30:57;;;;;;;18.63;16.60;;;21.20;99.90;;;;;;5017572;28;20582;-85
2023/07/10 02:33:23;;;;;;;22.33;14.87;;;21.20;99.90;;;;;;5007458;28;20203;-85
2023/07/10 02:35:49;;;;;;;15.30;13.70;;;21.20;99.90;;;;;;5009673;28;20187;-84
2023/07/10 02:38:15;;;;;;;22.80;12.93;;;21.20;99.90;;;;;;5012304;28;20199;-84
2023/07/10 02:40:43;;;;;;;17.80;13.27;;;21.20;99.90;;;;;;5010780;28;20947;-85
2023/07/10 02:43:09;;;;;;;19.70;13.77;;;21.20;99.50;;;;;;5014866;28;20439;-85
2023/07/10 02:45:35;;;;;;;23.50;12.10;;;21.20;49.90;;;;;;5000562;28;20529;-84
2023/07/10 02:48:01;;;;;;;15.00;11.27;;;21.20;1.00;;;;;;5002908;28;20457;-85
2023/07/10 02:50:26;;;;;;;14.53;10.67;;;21.20;1.00;;;;;;5002432;28;20444;-82
2023/07/10 02:52:52;;;;;;;14.93;11.37;;;21.20;1.00;;;;;;4999892;28;20242;-84
2023/07/10 02:55:18;;;;;;;13.30;10.27;;;21.20;1.00;;;;;;5003896;28;20195;-85
2023/07/10 02:57:43;;;;;;;14.97;10.20;;;21.10;1.00;;;;;;5008413;28;20215;-85
2023/07/10 03:00:09;;;;;;;13.50;10.30;;;21.10;99.90;;;;;;5009806;28;20179;-85
2023/07/10 03:02:35;;;;;;;12.87;9.73;;;21.10;99.90;;;;;;5015280;28;20201;-84
2023/07/10 03:05:01;;;;;;;12.43;9.70;;;21.10;99.90;;;;;;5013457;28;20451;-85
2023/07/10 03:07:27;;;;;;;16.33;9.83;;;21.10;99.90;;;;;;5012823;28;20195;-84
2023/07/10 03:09:52;;;;;;;11.30;7.90;;;21.10;99.90;;;;;;5003831;28;20628;-85
2023/07/10 03:12:21;;;;;;;12.37;8.80;;;21.00;1.00;;;;;;5000132;28;20853;-84
2023/07/10 03:14:47;;;;;;;12.30;8.30;;;21.00;1.00;;;;;;5019724;28;20187;-84
2023/07/10 03:17:12;;;;;;;11.97;7.70;;;21.00;1.00;;;;;;5009960;28;20986;-84
2023/07/10 03:19:38;;;;;;;14.13;8.50;;;21.00;65.70;;;;;;5013973;28;20445;-84
2023/07/10 03:22:03;;;;;;;12.20;7.73;;;21.00;1.00;;;;;;5005462;28;20204;-84
2023/07/10 03:24:29;;;;;;;11.60;7.37;;;21.00;1.00;;;;;;5004195;28;20197;-85
2023/07/10 03:26:55;;;;;;;14.90;8.10;;;21.00;99.90;;;;;;5004336;28;20197;-84
2023/07/10 03:29:20;;;;;;;8.97;6.80;;;20.90;25.00;;;;;;5006794;28;20566;-84
2023/07/10 03:31:46;;;;;;;12.47;7.90;;;20.90;99.90;;;;;;5006648;28;20766;-85
2023/07/10 03:34:12;;;;;;;10.90;7.43;;;20.80;66.50;;;;;;5003946;28;20261;-85
2023/07/10 03:36:38;;;;;;;14.57;7.43;;;20.80;99.90;;;;;;4997177;28;20191;-84
2023/07/10 03:39:04;;;;;;;7.27;6.57;;;20.80;99.90;;;;;;5006681;28;21006;-85
2023/07/10 03:41:31;;;;;;;12.23;7.30;;;20.70;99.90;;;;;;5010524;28;20465;-84
2023/07/10 03:43:56;;;;;;;11.80;7.70;;;20.70;99.90;;;;;;5014221;28;20491;-84
2023/07/10 03:46:22;;;;;;;15.40;7.47;;;20.70;99.90;;;;;;5009058;28;20449;-85
2023/07/10 03:48:48;;;;;;;9.07;7.03;;;20.60;99.90;;;;;;5010309;28;20289;-85
2023/07/10 03:51:15;;;;;;;12.10;6.70;;;20.60;99.90;;;;;;5011463;28;20485;-84
2023/07/10 03:53:40;;;;;;;12.90;7.83;;;20.70;99.90;;;;;;5006096;28;20195;-84
2023/07/10 03:56:06;;;;;;;13.10;7.50;;;20.60;99.90;;;;;;5005499;28;21262;-84
2023/07/10 03:58:34;;;;;;;10.93;7.70;;;20.50;99.90;;;;;;5008414;28;20214;-85
2023/07/10 04:01:01;;;;;;;10.93;7.70;;;20.50;99.90;;;;;;5019411;28;20484;-85
2023/07/10 04:03:32;;;;;;;10.80;7.13;;;20.50;99.90;;;;;;5009356;28;20506;-85
2023/07/10 04:05:58;;;;;;;13.40;7.77;;;20.60;99.90;;;;;;5009615;28;20444;-85
2023/07/10 04:08:34;;;;;;;9.33;6.90;;;20.50;99.90;;;;;;5008328;28;20445;-84
2023/07/10 04:11:06;;;;;;;13.40;7.83;;;20.50;99.90;;;;;;5004951;28;20548;-84
2023/07/10 04:13:32;;;;;;;14.00;7.87;;;20.50;1.00;;;;;;5009012;28;20504;-84
2023/07/10 04:16:05;;;;;;;15.57;7.97;;;20.50;1.00;;;;;;5017885;28;20482;-84
2023/07/10 04:18:35;;;;;;;17.00;7.73;;;20.60;1.00;;;;;;5010843;28;20461;-85
2023/07/10 04:21:03;;;;;;;12.10;7.20;;;20.60;99.90;;;;;;5003899;28;20465;-84
2023/07/10 04:23:29;;;;;;;11.40;7.60;;;20.70;99.90;;;;;;5012327;28;20438;-84
2023/07/10 04:25:55;;;;;;;10.40;6.90;;;20.70;26.50;;;;;;5004245;28;20444;-84
2023/07/10 04:28:20;;;;;;;11.00;6.57;;;20.80;1.00;;;;;;5023022;28;20667;-85
2023/07/10 04:30:47;;;;;;;11.90;7.73;;;20.80;1.00;;;;;;5012890;28;20193;-85
2023/07/10 04:33:14;;;;;;;13.47;8.27;;;20.80;99.90;;;;;;5003098;28;20202;-84
2023/07/10 04:35:43;;;;;;;14.63;8.30;;;20.70;99.90;;;;;;5007156;28;20446;-84
2023/07/10 04:38:09;;;;;;;12.33;9.40;;;20.80;99.90;;;;;;5010778;28;20473;-85
2023/07/10 04:40:35;;;;;;;14.67;8.73;;;20.80;99.90;;;;;;5019458;28;20438;-85
2023/07/10 04:43:02;;;;;;;13.40;9.20;;;20.90;99.90;;;;;;5016793;28;20446;-85
2023/07/10 04:45:28;;;;;;;17.20;9.03;;;20.90;55.50;;;;;;5005125;28;20201;-84
2023/07/10 04:47:53;;;;;;;17.90;10.30;;;21.00;1.00;;;;;;5013211;28;20440;-85
2023/07/10 04:50:20;;;;;;;11.50;7.83;;;21.00;99.90;;;;;;5007903;28;20198;-85
2023/07/10 04:52:45;;;;;;;15.30;8.97;;;21.10;99.90;;;;;;5010212;28;20301;-84
2023/07/10 04:55:11;;;;;;;13.13;9.23;;;21.10;99.90;;;;;;5005809;28;20463;-85
2023/07/10 04:57:36;;;;;;;15.80;9.23;;;21.10;64.60;;;;;;5013533;28;20210;-85
2023/07/10 05:00:02;;;;;;;14.70;9.43;;;21.10;1.00;;;;;;5001082;28;20254;-85
2023/07/10 05:02:28;;;;;;;20.67;10.73;;;21.10;1.00;;;;;;5004845;28;20204;-84
2023/07/10 05:04:53;;;;;;;14.27;10.40;;;21.10;1.00;;;;;;5008505;28;20471;-84
2023/07/10 05:07:19;;;;;;;16.27;9.70;;;21.10;1.00;;;;;;5012407;28;20282;-85
2023/07/10 05:09:44;;;;;;;14.80;10.33;;;21.10;1.00;;;;;;5022066;28;20206;-85
2023/07/10 05:12:10;;;;;;;15.40;9.80;;;21.10;1.00;;;;;;5007002;28;20204;-84
2023/07/10 05:14:35;;;;;;;15.80;9.60;;;21.10;1.00;;;;;;5014368;28;20219;-85
2023/07/10 05:17:01;;;;;;;19.50;10.70;;;21.20;1.00;;;;;;5015974;28;20238;-86
2023/07/10 05:19:32;;;;;;;12.30;10.93;;;21.20;1.00;;;;;;5006945;28;20741;-84
2023/07/10 05:21:58;;;;;;;16.93;11.73;;;21.20;99.90;;;;;;5003905;28;20226;-84
2023/07/10 05:24:24;;;;;;;14.60;11.23;;;21.20;1.00;;;;;;4999026;28;20447;-85
2023/07/10 05:26:49;;;;;;;16.10;9.97;;;21.20;1.00;;;;;;5004146;28;20447;-84
2023/07/10 05:29:15;;;;;;;12.33;9.00;;;21.20;1.00;;;;;;5008039;28;20508;-85
2023/07/10 05:31:40;;;;;;;11.47;9.57;;;21.20;99.90;;;;;;5006314;28;20211;-85
2023/07/10 05:34:06;;;;;;;14.17;8.77;;;21.30;99.90;;;;;;5012205;28;20205;-85
2023/07/10 05:36:31;;;;;;;12.90;8.80;;;21.40;99.90;;;;;;5012007;28;20295;-85
2023/07/10 05:38:57;;;;;;;12.93;8.67;;;21.40;19.20;;;;;;5004330;28;20225;-84
2023/07/10 05:41:22;;;;;;;10.30;7.80;;;21.50;1.00;;;;;;5003890;28;20208;-85
2023/07/10 05:43:48;;;;;;;11.33;7.83;;;21.50;1.00;;;;;;5016218;28;20279;-85
2023/07/10 05:46:14;;;;;;;15.10;8.17;;;21.60;99.90;;;;;;5017135;28;20196;-85
2023/07/10 05:48:40;;;;;;;9.20;7.80;;;21.60;12.50;;;;;;5017050;28;20187;-84
2023/07/10 05:51:05;;;;;;;11.30;7.40;;;21.60;1.00;;;;;;5018952;28;20456;-84
2023/07/10 05:53:33;;;;;;;15.83;8.50;;;21.70;1.00;;;;;;5005863;28;20212;-84
2023/07/10 05:56:00;;;;;;;12.33;8.57;;;21.90;1.00;;;;;;5005819;28;20686;-84
2023/07/10 05:58:28;;;;;;;14.57;7.97;;;22.00;1.00;;;;;;5003957;28;20473;-84
2023/07/10 06:00:56;;;;;;;11.53;7.20;;;22.00;99.90;;;;;;5015354;28;20880;-84
2023/07/10 06:03:23;;;;;;;13.83;7.33;;;22.10;99.90;;;;;;5005505;28;20438;-84
2023/07/10 06:05:53;;;;;;;11.57;7.17;;;22.40;99.90;;;;;;5014399;28;20449;-85
2023/07/10 06:08:19;;;;;;;13.17;7.30;;;22.60;1.00;;;;;;5005615;28;20446;-85
2023/07/10 06:10:45;;;;;;;10.80;6.93;;;23.20;1.00;;;;;;5008621;28;20440;-84
2023/07/10 06:13:11;;;;;;;16.00;7.03;;;23.60;1.00;;;;;;5000500;28;20197;-84
2023/07/10 06:15:41;;;;;;;14.30;7.53;;;24.10;99.90;;;;;;4992204;28;21395;-84
2023/07/10 06:18:07;;;;;;;9.33;7.43;;;24.30;99.90;;;;;;4996159;28;20276;-84
2023/07/10 06:20:32;;;;;;;11.13;7.40;;;24.70;99.90;;;;;;4998006;28;20525;-84
2023/07/10 06:22:58;;;;;;;12.33;7.70;;;24.90;99.90;;;;;;5004878;28;20185;-84
2023/07/10 06:25:23;;;;;;;14.30;6.33;;;25.90;99.90;;;;;;5005054;28;20183;-85
2023/07/10 06:27:49;;;;;;;8.33;6.33;;;28.80;99.90;;;;;;4995082;28;20183;-83
2023/07/10 06:30:15;;;;;;;7.63;5.13;;;32.10;99.90;;;;;;4997839;28;20194;-83
2023/07/10 06:32:41;;;;;;;10.20;5.80;;;35.30;99.90;;;;;;4992586;28;20207;-83
2023/07/10 06:35:12;;;;;;;5.60;4.20;;;36.80;99.90;;;;;;4998993;28;20445;-83
2023/07/10 06:37:43;;;;;;;6.10;4.27;;;38.70;99.90;;;;;;4990581;28;20207;-82
2023/07/10 06:40:11;;;;;;;9.50;4.70;;;37.10;99.90;;;;;;4998664;28;20973;-83
2023/07/10 06:42:37;;;;;;;6.23;3.60;;;38.60;99.90;;;;;;5003569;28;20453;-83
2023/07/10 06:45:16;;;;;;;;;;;;;;;;;;;;;
2023/07/10 06:50:52;;;;;;;7.00;3.53;;;41.60;99.90;;;;;;5001236;28;20439;-82
2023/07/10 06:53:19;;;;;;;6.00;3.50;;;41.80;91.00;;;;;;4995679;28;20673;-84
2023/07/10 06:55:47;;;;;;;3.90;2.47;;;40.90;76.80;;;;;;4999615;28;20859;-83
2023/07/10 06:58:12;;;;;;;4.20;2.50;;;40.00;64.80;;;;;;4989815;28;20469;-82
2023/07/10 07:00:41;;;;;;;5.90;2.77;;;38.60;55.40;;;;;;4994452;28;20442;-84
2023/07/10 07:03:07;;;;;;;6.30;3.40;;;37.80;52.10;;;;;;5002274;28;20187;-84
2023/07/10 07:05:33;;;;;;;6.30;2.97;;;39.10;53.70;;;;;;4992318;28;20504;-83
2023/07/10 07:07:59;;;;;;;4.50;3.37;;;40.70;53.60;;;;;;4992120;28;20458;-83
2023/07/10 07:10:24;;;;;;;6.23;3.43;;;42.70;52.60;;;;;;4991814;28;20534;-84
2023/07/10 07:12:50;;;;;;;3.37;2.50;;;45.10;50.70;;;;;;4998466;28;20202;-84
2023/07/10 07:15:15;;;;;;;5.40;2.40;;;46.90;45.60;;;;;;5002999;28;20188;-84
2023/07/10 07:17:41;;;;;;;4.13;3.00;;;48.70;40.90;;;;;;4999635;28;20182;-84
2023/07/10 07:20:08;;;;;;;4.95;2.90;;;50.70;33.50;;;;;;4993630;28;20207;-85
2023/07/10 07:22:33;;;;;;;3.83;2.08;;;52.00;28.20;;;;;;4995963;28;20636;-84
2023/07/10 07:24:59;;;;;;;2.92;2.30;;;52.80;22.40;;;;;;4999930;28;20203;-83
2023/07/10 07:27:24;;;;;;;4.25;2.15;;;53.30;15.90;;;;;;5017750;28;20211;-84
2023/07/10 07:29:51;;;;;;;9.13;2.17;;;54.10;6.90;;;;;;5003425;28;20558;-84
2023/07/10 07:32:18;;;;;;;2.38;1.77;;;54.40;2.30;;;;;;5002120;28;20296;-84
2023/07/10 07:34:45;;;;;;;3.72;2.20;;;54.60;1.00;;;;;;4993256;28;20215;-85
2023/07/10 07:37:10;;;;;;;3.45;2.00;;;55.20;1.00;;;;;;4993038;28;20275;-85
2023/07/10 07:39:36;;;;;;;4.20;1.92;;;55.60;1.00;;;;;;4995390;28;20646;-85
2023/07/10 07:42:01;;;;;;;2.75;1.98;;;56.00;1.00;;;;;;4992976;28;20222;-85
2023/07/10 07:44:28;;;;;;;3.30;1.83;;;55.60;1.00;;;;;;5002455;28;20186;-85
2023/07/10 07:46:53;;;;;;;6.53;1.92;;;55.70;1.00;;;;;;4998847;28;20190;-85
2023/07/10 07:49:19;;;;;;;3.78;1.75;;;55.50;1.00;;;;;;4993286;28;20183;-84
2023/07/10 07:51:44;;;;;;;3.40;1.77;;;56.00;1.00;;;;;;4999995;28;20584;-85
2023/07/10 07:54:13;;;;;;;1.50;1.25;;;56.00;1.00;;;;;;4999706;28;20195;-85
2023/07/10 07:56:38;;;;;;;2.65;1.30;;;56.20;1.00;;;;;;5002588;28;20182;-86
2023/07/10 07:59:04;;;;;;;1.98;1.30;;;56.40;1.00;;;;;;4995522;28;20223;-85
2023/07/10 08:01:30;;;;;;;2.22;1.80;;;56.30;1.00;;;;;;4999132;28;20751;-85
2023/07/10 08:03:56;;;;;;;2.63;1.38;;;55.80;1.00;;;;;;4998224;28;20266;-85
2023/07/10 08:06:25;;;;;;;4.22;1.50;;;55.60;1.00;;;;;;4997775;28;20178;-85
2023/07/10 08:08:50;;;;;;;5.22;1.70;;;55.50;1.00;;;;;;5001323;28;20265;-84
2023/07/10 08:11:20;;;;;;;2.20;1.58;;;55.50;1.00;;;;;;4997252;28;20697;-84
2023/07/10 08:13:46;;;;;;;3.40;1.50;;;55.00;1.00;;;;;;4996704;28;20441;-84
2023/07/10 08:16:11;;;;;;;1.80;1.30;;;54.80;1.00;;;;;;4994140;28;20195;-85
2023/07/10 08:18:37;;;;;;;1.77;1.25;;;54.10;1.00;;;;;;4998069;28;20202;-85
2023/07/10 08:21:04;;;;;;;2.10;1.30;;;53.30;1.00;;;;;;4993501;28;20211;-85
2023/07/10 08:23:30;;;;;;;2.65;1.60;;;53.10;1.00;;;;;;5003298;28;20177;-84
2023/07/10 08:25:56;;;;;;;2.60;1.70;;;53.00;1.00;;;;;;5000120;28;20189;-84
2023/07/10 08:28:21;;;;;;;2.97;1.55;;;52.80;1.00;;;;;;5009267;28;20187;-84
2023/07/10 08:30:47;;;;;;;3.00;1.50;;;52.70;1.00;;;;;;4998515;28;21493;-84
2023/07/10 08:33:12;;;;;;;2.03;1.30;;;52.70;1.00;;;;;;4996688;28;21209;-84
2023/07/10 08:35:38;;;;;;;2.27;1.20;;;51.50;1.00;;;;;;4996770;28;20202;-85
2023/07/10 08:38:05;;;;;;;3.90;2.73;;;51.50;1.00;;;;;;4997849;28;20225;-85
2023/07/10 08:40:33;;;;;;;2.13;1.20;;;51.40;1.00;;;;;;4993209;28;20267;-85
2023/07/10 08:43:06;;;;;;;2.80;1.60;;;50.50;1.00;;;;;;4997295;28;20659;-84
2023/07/10 08:45:35;;;;;;;4.70;1.80;;;50.40;1.00;;;;;;4993672;28;20215;-85
2023/07/10 08:48:30;;;;;;;3.37;1.50;;;50.40;1.00;;;;;;5006075;28;20227;-84
2023/07/10 08:51:26;;;;;;;3.50;1.40;;;51.10;1.00;;;;;;4997948;28;20391;-85
2023/07/10 08:54:11;;;;;;;3.30;1.60;;;51.90;1.00;;;;;;4997683;28;20272;-85
2023/07/10 08:56:42;;;;;;;3.70;1.60;;;51.90;1.00;;;;;;5003059;28;20209;-84
2023/07/10 08:59:32;;;;;;;2.93;1.57;;;52.40;1.00;;;;;;4998479;28;20214;-85
2023/07/10 09:01:58;;;;;;;2.77;1.43;;;51.40;1.00;;;;;;4997257;28;20350;-85
2023/07/10 09:04:25;;;;;;;3.10;1.70;;;51.70;1.00;;;;;;4990521;28;20183;-85
2023/07/10 09:06:56;;;;;;;2.10;1.40;;;51.60;1.00;;;;;;5003599;28;20178;-84
2023/07/10 09:09:41;;;;;;;1.80;1.40;;;51.40;1.00;;;;;;5001769;28;20179;-84
2023/07/10 09:12:15;;;;;;;2.90;1.30;;;51.40;1.00;;;;;;5007304;28;20218;-85
2023/07/10 09:15:04;;;;;;;3.47;1.80;;;51.60;1.00;;;;;;5002938;28;20189;-84
2023/07/10 09:17:39;;;;;;;2.93;1.47;;;52.00;1.00;;;;;;4999521;28;20222;-85
2023/07/10 09:20:09;;;;;;;4.60;1.93;;;51.80;1.00;;;;;;5008223;28;20210;-85
2023/07/10 09:22:37;;;;;;;4.70;1.83;;;51.40;1.00;;;;;;4996660;28;20688;-85
2023/07/10 09:25:10;;;;;;;2.17;1.40;;;51.00;1.00;;;;;;5004140;28;20179;-85
2023/07/10 09:27:36;;;;;;;4.13;1.90;;;51.40;1.00;;;;;;4995300;28;20449;-85
2023/07/10 09:30:01;;;;;;;2.33;1.23;;;50.90;1.00;;;;;;5004842;28;20194;-85
2023/07/10 09:32:34;;;;;;;2.83;1.93;;;50.90;1.00;;;;;;5003749;28;20222;-85
2023/07/10 09:35:00;;;;;;;4.43;1.77;;;51.00;1.00;;;;;;4992128;28;20261;-85
2023/07/10 09:37:35;;;;;;;2.20;1.40;;;50.60;1.00;;;;;;4998161;28;20529;-84
2023/07/10 09:40:40;;;;;;;3.30;1.60;;;49.70;1.00;;;;;;5000770;28;20226;-85
2023/07/10 09:43:13;;;;;;;4.37;1.67;;;49.10;1.00;;;;;;4987846;28;20584;-85
2023/07/10 09:45:44;;;;;;;2.83;1.60;;;49.30;1.00;;;;;;4990901;28;20446;-85
2023/07/10 09:48:17;;;;;;;3.73;1.70;;;49.00;1.00;;;;;;4992596;28;20433;-85
2023/07/10 09:50:50;;;;;;;2.37;1.40;;;48.80;1.00;;;;;;5002045;28;20449;-85
2023/07/10 09:53:34;;;;;;;4.47;2.07;;;48.40;1.00;;;;;;4999172;28;20449;-85
2023/07/10 09:56:00;;;;;;;3.40;2.03;;;47.80;1.00;;;;;;4997871;28;20452;-84
2023/07/10 09:58:26;;;;;;;4.20;1.70;;;47.90;1.00;;;;;;4997765;28;20469;-85
2023/07/10 10:00:52;;;;;;;3.50;1.50;;;47.50;1.00;;;;;;5001985;28;20187;-84
2023/07/10 10:03:39;;;;;;;4.30;1.93;;;48.00;1.00;;;;;;4994657;28;20189;-86
2023/07/10 10:06:18;;;;;;;3.10;1.70;;;48.50;1.00;;;;;;4998202;28;20325;-84
2023/07/10 10:08:45;;;;;;;3.10;1.47;;;49.00;1.00;;;;;;5000249;28;20445;-84
2023/07/10 10:11:12;;;;;;;5.77;1.97;;;48.90;1.00;;;;;;4994140;28;20833;-85
2023/07/10 10:13:46;;;;;;;4.77;1.97;;;48.70;1.00;;;;;;4994782;28;20446;-86
2023/07/10 10:16:38;;;;;;;3.80;1.83;;;47.90;1.00;;;;;;4998067;28;21013;-85
2023/07/10 10:19:23;;;;;;;4.97;1.63;;;47.70;1.00;;;;;;4991389;28;20469;-86
2023/07/10 10:21:49;;;;;;;6.90;2.07;;;47.90;1.00;;;;;;4993827;28;20473;-85
2023/07/10 10:24:15;;;;;;;3.60;1.63;;;48.50;1.00;;;;;;4991328;28;20446;-85
2023/07/10 10:26:51;;;;;;;3.53;1.27;;;48.10;1.00;;;;;;5001144;28;20190;-84
2023/07/10 10:29:35;;;;;;;3.50;1.40;;;48.30;1.00;;;;;;4995852;28;20624;-85
2023/07/10 10:32:30;;;;;;;3.20;2.00;;;47.90;1.00;;;;;;4999578;28;20458;-84
2023/07/10 10:35:08;;;;;;;3.30;1.60;;;46.90;1.00;;;;;;5008817;28;20449;-84
2023/07/10 10:38:18;;;;;;;3.20;2.20;;;47.30;1.00;;;;;;5004997;28;20456;-83
2023/07/10 10:40:51;;;;;;;4.87;1.97;;;47.70;1.00;;;;;;4993617;28;20434;-84
2023/07/10 10:43:33;;;;;;;3.07;1.43;;;47.80;1.00;;;;;;5004782;28;20429;-84
2023/07/10 10:46:03;;;;;;;3.23;1.73;;;47.50;1.00;;;;;;5003435;28;20438;-83
2023/07/10 10:48:34;;;;;;;2.83;2.00;;;47.60;1.00;;;;;;5008294;28;20449;-83
2023/07/10 10:51:21;;;;;;;4.80;1.60;;;47.80;1.00;;;;;;4998432;28;20458;-83
2023/07/10 10:54:10;;;;;;;5.33;1.80;;;47.90;1.00;;;;;;5015355;28;20521;-84
2023/07/10 10:56:46;;;;;;;7.93;1.80;;;47.80;1.00;;;;;;4998050;28;20429;-83
2023/07/10 10:59:19;;;;;;;7.00;1.97;;;44.80;1.00;;;;;;4994418;28;20474;-83
2023/07/10 11:02:01;;;;;;;3.60;1.70;;;43.70;1.00;;;;;;5005073;28;20829;-83
2023/07/10 11:04:35;;;;;;;4.93;1.53;;;44.40;1.00;;;;;;5000682;28;20450;-83
2023/07/10 11:07:11;;;;;;;3.47;1.30;;;44.20;1.00;;;;;;4994491;28;21019;-83
2023/07/10 11:09:55;;;;;;;2.70;1.50;;;44.30;1.00;;;;;;5005130;28;20472;-83
2023/07/10 11:12:27;;;;;;;3.80;1.77;;;44.60;1.00;;;;;;4994008;28;20462;-83
2023/07/10 11:14:57;;;;;;;4.00;1.90;;;43.40;1.00;;;;;;4993764;28;20431;-83
2023/07/10 11:17:23;;;;;;;5.43;1.87;;;42.50;1.00;;;;;;4994455;28;20430;-83
2023/07/10 11:19:50;;;;;;;5.47;1.80;;;43.10;1.00;;;;;;5000695;28;20438;-84
2023/07/10 11:22:36;;;;;;;3.53;1.90;;;43.50;1.00;;;;;;4992368;28;20454;-84
2023/07/10 11:25:02;;;;;;;5.23;1.67;;;42.70;1.00;;;;;;4997675;28;20468;-83
2023/07/10 11:27:30;;;;;;;4.60;1.80;;;42.90;1.00;;;;;;4994701;28;20943;-83
2023/07/10 11:30:12;;;;;;;4.47;1.73;;;43.50;1.00;;;;;;4999312;28;20477;-84
2023/07/10 11:32:57;;;;;;;2.70;1.50;;;44.00;1.00;;;;;;4997460;28;20465;-84
2023/07/10 11:35:24;;;;;;;3.77;1.53;;;44.30;1.00;;;;;;4992320;28;20449;-84
2023/07/10 11:37:50;;;;;;;4.20;1.80;;;43.90;1.00;;;;;;4999038;28;20485;-84
2023/07/10 11:40:28;;;;;;;2.80;1.37;;;44.10;1.00;;;;;;5005554;28;20441;-83
2023/07/10 11:43:00;;;;;;;3.80;1.60;;;44.20;1.00;;;;;;5000149;28;20227;-84
2023/07/10 11:45:33;;;;;;;5.07;1.70;;;43.30;1.00;;;;;;4994430;28;20517;-83
2023/07/10 11:47:59;;;;;;;3.87;1.70;;;41.70;1.00;;;;;;4995464;28;20863;-83
2023/07/10 11:50:27;;;;;;;2.57;1.40;;;41.20;1.00;;;;;;4991414;28;20446;-83
2023/07/10 11:53:20;;;;;;;3.70;1.93;;;41.60;1.00;;;;;;4994242;28;20501;-84
2023/07/10 11:56:05;;;;;;;4.60;1.30;;;42.10;1.00;;;;;;4996712;28;20442;-84
2023/07/10 11:58:33;;;;;;;2.23;1.60;;;42.70;1.00;;;;;;5000173;28;20469;-83
2023/07/10 12:01:17;;;;;;;2.60;1.70;;;42.50;1.00;;;;;;5005850;28;20530;-84
2023/07/10 12:03:43;;;;;;;3.30;1.50;;;43.10;1.00;;;;;;5002377;28;20536;-84
2023/07/10 12:06:18;;;;;;;2.37;1.33;;;43.20;1.00;;;;;;5008984;28;20465;-83
2023/07/10 12:08:45;;;;;;;3.17;1.77;;;43.40;1.00;;;;;;4999305;28;20193;-84
2023/07/10 12:11:35;;;;;;;5.53;1.73;;;43.40;1.00;;;;;;5010198;28;20449;-84
2023/07/10 12:14:16;;;;;;;3.20;1.63;;;42.80;1.00;;;;;;5007278;28;20442;-84
2023/07/10 12:16:51;;;;;;;2.40;1.10;;;43.00;1.00;;;;;;5002372;28;20440;-85
2023/07/10 12:19:22;;;;;;;5.73;1.80;;;42.70;1.00;;;;;;4998442;28;20666;-84
2023/07/10 12:21:47;;;;;;;3.90;1.23;;;42.80;1.00;;;;;;5006739;28;20470;-85
2023/07/10 12:24:15;;;;;;;3.80;1.57;;;42.70;1.00;;;;;;4997616;28;20446;-84
2023/07/10 12:26:41;;;;;;;4.30;1.60;;;42.50;1.00;;;;;;4996084;28;20187;-84
2023/07/10 12:29:14;;;;;;;1.97;1.20;;;42.00;1.00;;;;;;5001176;28;20452;-84
2023/07/10 12:31:41;;;;;;;4.43;1.80;;;41.70;1.00;;;;;;5005968;28;20205;-84
2023/07/10 12:34:24;;;;;;;3.00;1.50;;;41.40;1.00;;;;;;5009859;28;20796;-84
2023/07/10 12:36:53;;;;;;;3.40;1.30;;;41.30;1.00;;;;;;4999403;28;20448;-84
2023/07/10 12:39:19;;;;;;;3.70;1.30;;;41.40;1.00;;;;;;5003394;28;20466;-84
2023/07/10 12:41:45;;;;;;;2.83;1.50;;;41.50;1.00;;;;;;5005298;28;20446;-84
2023/07/10 12:44:28;;;;;;;2.27;1.17;;;41.60;1.00;;;;;;4996304;28;20442;-83
2023/07/10 12:47:04;;;;;;;4.53;1.67;;;41.40;1.00;;;;;;5006204;28;20646;-84
2023/07/10 12:49:31;;;;;;;2.70;1.03;;;41.30;1.00;;;;;;5016596;28;20466;-84
2023/07/10 12:51:58;;;;;;;3.40;1.30;;;41.10;1.00;;;;;;4997442;28;20474;-84
2023/07/10 12:54:42;;;;;;;5.60;1.50;;;40.50;1.00;;;;;;5000904;28;20484;-85
2023/07/10 12:57:21;;;;;;;2.83;1.13;;;40.10;1.00;;;;;;4995869;28;20462;-84
2023/07/10 12:59:48;;;;;;;4.20;1.67;;;40.40;1.00;;;;;;5005338;28;20445;-84
2023/07/10 13:02:22;;;;;;;3.53;1.67;;;40.30;1.00;;;;;;5002288;28;20460;-83